createdAt,value
2022-10-26T00:01:23.173Z,101291.00
2022-10-26T00:03:51.559Z,101291.00
2022-10-26T00:06:21.860Z,101277.00
2022-10-26T00:08:50.584Z,101279.00
2022-10-26T00:11:20.826Z,101270.00
2022-10-26T00:13:49.748Z,101281.00
2022-10-26T00:16:21.285Z,101281.00
2022-10-26T00:18:50.181Z,101274.00
2022-10-26T00:21:19.244Z,101279.00
2022-10-26T00:23:47.545Z,101274.00
2022-10-26T00:26:15.818Z,101271.00
2022-10-26T00:28:45.810Z,101277.00
2022-10-26T00:31:16.199Z,101263.00
2022-10-26T00:33:44.659Z,101266.00
2022-10-26T00:36:16.612Z,101264.00
2022-10-26T00:38:49.109Z,101265.00
2022-10-26T00:41:18.312Z,101266.00
2022-10-26T00:43:48.206Z,101261.00
2022-10-26T00:46:21.718Z,101254.00
2022-10-26T00:48:54.847Z,101264.00
2022-10-26T00:51:32.514Z,101261.00
2022-10-26T00:54:05.268Z,101258.00
2022-10-26T00:56:34.380Z,101261.00
2022-10-26T00:59:07.932Z,101264.00
2022-10-26T01:01:39.726Z,101261.00
2022-10-26T01:04:08.453Z,101260.00
2022-10-26T01:06:37.717Z,101226.00
2022-10-26T01:09:06.685Z,101253.00
2022-10-26T01:11:34.943Z,101240.00
2022-10-26T01:14:09.508Z,101242.00
2022-10-26T01:16:57.174Z,101239.00
2022-10-26T01:20:03.252Z,101245.00
2022-10-26T01:22:37.905Z,101239.00
2022-10-26T01:25:17.973Z,101224.00
2022-10-26T01:27:48.793Z,101229.00
2022-10-26T01:30:31.222Z,101229.00
2022-10-26T01:33:15.428Z,101222.00
2022-10-26T01:35:52.597Z,101226.00
2022-10-26T01:38:30.678Z,101218.00
2022-10-26T01:41:06.326Z,101227.00
2022-10-26T01:43:41.192Z,101223.00
2022-10-26T01:46:12.224Z,101222.00
2022-10-26T01:48:42.836Z,101224.00
2022-10-26T01:51:13.204Z,101223.00
2022-10-26T01:53:46.614Z,101216.00
2022-10-26T01:56:20.712Z,101216.00
2022-10-26T01:59:17.989Z,101210.00
2022-10-26T02:02:24.348Z,101207.00
2022-10-26T02:05:25.446Z,101208.00
2022-10-26T02:08:05.000Z,101208.00
2022-10-26T02:10:48.951Z,101204.00
2022-10-26T02:13:26.459Z,101207.00
2022-10-26T02:15:59.006Z,101200.00
2022-10-26T02:18:33.413Z,101204.00
2022-10-26T02:21:08.432Z,101197.00
2022-10-26T02:23:40.591Z,101184.00
2022-10-26T02:26:13.369Z,101202.00
2022-10-26T02:28:46.276Z,101189.00
2022-10-26T02:31:16.687Z,101174.00
2022-10-26T02:33:50.655Z,101178.00
2022-10-26T02:36:25.940Z,101164.00
2022-10-26T02:38:55.534Z,101175.00
2022-10-26T02:41:26.691Z,101175.00
2022-10-26T02:44:01.504Z,101166.00
2022-10-26T02:46:30.198Z,101171.00
2022-10-26T02:49:00.268Z,101177.00
2022-10-26T02:51:36.508Z,101171.00
2022-10-26T02:54:15.560Z,101165.00
2022-10-26T02:56:50.482Z,101169.00
2022-10-26T02:59:22.093Z,101162.00
2022-10-26T03:01:52.417Z,101157.00
2022-10-26T03:04:22.157Z,101150.00
2022-10-26T03:06:56.622Z,101150.00
2022-10-26T03:09:25.687Z,101150.00
2022-10-26T03:11:54.447Z,101147.00
2022-10-26T03:14:22.603Z,101156.00
2022-10-26T03:19:21.666Z,101149.00
2022-10-26T03:21:49.930Z,101151.00
2022-10-26T03:24:18.106Z,101150.00
2022-10-26T03:26:46.291Z,101136.00
2022-10-26T03:29:14.470Z,101142.00
2022-10-26T03:31:42.648Z,101144.00
2022-10-26T03:34:10.827Z,101133.00
2022-10-26T03:36:40.362Z,101143.00
2022-10-26T03:39:08.537Z,101123.00
2022-10-26T03:41:36.713Z,101138.00
2022-10-26T03:44:05.117Z,101139.00
2022-10-26T03:46:33.330Z,101135.00
2022-10-26T03:49:01.470Z,101141.00
2022-10-26T03:51:29.653Z,101104.00
2022-10-26T03:53:59.214Z,101141.00
2022-10-26T03:56:27.377Z,101146.00
2022-10-26T03:58:55.605Z,101148.00
2022-10-26T04:01:24.082Z,101145.00
2022-10-26T04:03:52.340Z,101144.00
2022-10-26T04:06:23.178Z,101151.00
2022-10-26T04:08:51.795Z,101154.00
2022-10-26T04:11:21.411Z,101161.00
2022-10-26T04:13:49.655Z,101150.00
2022-10-26T04:16:17.866Z,101151.00
2022-10-26T04:18:46.178Z,101156.00
2022-10-26T04:21:14.534Z,101143.00
2022-10-26T04:23:42.787Z,101146.00
2022-10-26T04:26:11.018Z,101152.00
2022-10-26T04:28:40.496Z,101144.00
2022-10-26T04:31:08.671Z,101149.00
2022-10-26T04:33:36.853Z,101143.00
2022-10-26T04:36:05.377Z,101141.00
2022-10-26T04:38:33.638Z,101141.00
2022-10-26T04:41:01.884Z,101138.00
2022-10-26T04:43:30.134Z,101134.00
2022-10-26T04:46:00.185Z,101122.00
2022-10-26T04:48:28.538Z,101122.00
2022-10-26T04:51:00.190Z,101125.00
2022-10-26T04:53:28.636Z,101128.00
2022-10-26T04:56:00.890Z,101127.00
2022-10-26T04:58:29.857Z,101135.00
2022-10-26T05:00:59.943Z,101125.00
2022-10-26T05:03:28.262Z,101135.00
2022-10-26T05:06:00.348Z,101132.00
2022-10-26T05:08:30.269Z,101107.00
2022-10-26T05:10:58.755Z,101131.00
2022-10-26T05:16:01.480Z,101139.00
2022-10-26T05:18:29.714Z,101143.00
2022-10-26T05:20:58.277Z,101138.00
2022-10-26T05:23:26.644Z,101127.00
2022-10-26T05:25:56.850Z,101125.00
2022-10-26T05:28:25.227Z,101136.00
2022-10-26T05:30:53.564Z,101077.00
2022-10-26T05:33:23.231Z,101137.00
2022-10-26T05:35:55.974Z,101132.00
2022-10-26T05:38:24.219Z,101129.00
2022-10-26T05:40:54.762Z,101132.00
2022-10-26T05:43:24.929Z,101132.00
2022-10-26T05:45:53.109Z,101137.00
2022-10-26T05:48:23.229Z,101133.00
2022-10-26T05:50:51.519Z,101131.00
2022-10-26T05:53:19.835Z,101110.00
2022-10-26T05:55:48.840Z,101125.00
2022-10-26T05:58:17.799Z,101123.00
2022-10-26T06:01:07.640Z,101128.00
2022-10-26T06:03:53.133Z,101139.00
2022-10-26T06:06:23.415Z,101146.00
2022-10-26T06:08:52.398Z,101142.00
2022-10-26T06:11:21.578Z,101126.00
2022-10-26T06:13:51.467Z,101120.00
2022-10-26T06:16:32.559Z,101139.00
2022-10-26T06:19:16.379Z,101141.00
2022-10-26T06:22:01.398Z,101142.00
2022-10-26T06:24:38.869Z,101137.00
2022-10-26T06:27:20.831Z,101140.00
2022-10-26T06:29:57.536Z,101138.00
2022-10-26T06:32:26.257Z,101143.00
2022-10-26T06:35:14.618Z,101143.00
2022-10-26T06:37:46.432Z,101147.00
2022-10-26T06:40:17.542Z,101145.00
2022-10-26T06:42:46.565Z,101137.00
2022-10-26T06:45:19.636Z,101136.00
2022-10-26T06:47:56.170Z,101133.00
2022-10-26T06:50:35.834Z,101137.00
2022-10-26T06:53:17.907Z,101126.00
2022-10-26T06:55:49.766Z,101141.00
2022-10-26T06:58:20.674Z,101144.00
2022-10-26T07:00:51.367Z,101139.00
2022-10-26T07:03:20.651Z,101125.00
2022-10-26T07:05:50.861Z,101145.00
2022-10-26T07:08:19.184Z,101163.00
2022-10-26T07:10:48.467Z,101165.00
2022-10-26T07:13:17.714Z,101153.00
2022-10-26T07:15:46.560Z,101161.00
2022-10-26T07:18:14.893Z,101164.00
2022-10-26T07:20:43.898Z,101164.00
2022-10-26T07:23:13.425Z,101164.00
2022-10-26T07:25:42.395Z,101163.00
2022-10-26T07:28:12.134Z,101163.00
2022-10-26T07:30:41.157Z,101151.00
2022-10-26T07:33:12.151Z,101163.00
2022-10-26T07:35:40.937Z,101164.00
2022-10-26T07:38:09.635Z,101173.00
2022-10-26T07:40:39.366Z,101159.00
2022-10-26T07:43:07.934Z,101157.00
2022-10-26T07:45:36.749Z,101160.00
2022-10-26T07:48:05.414Z,101156.00
2022-10-26T07:50:33.664Z,101162.00
2022-10-26T07:53:01.901Z,101165.00
2022-10-26T07:55:30.149Z,101164.00
2022-10-26T07:58:00.009Z,101157.00
2022-10-26T08:00:29.897Z,101164.00
2022-10-26T08:02:58.386Z,101166.00
2022-10-26T08:05:26.798Z,101157.00
2022-10-26T08:07:55.359Z,101161.00
2022-10-26T08:10:23.616Z,101157.00
2022-10-26T08:12:54.913Z,101140.00
2022-10-26T08:15:24.545Z,101166.00
2022-10-26T08:17:52.884Z,101162.00
2022-10-26T08:20:21.586Z,101167.00
2022-10-26T08:22:50.186Z,101161.00
2022-10-26T08:25:21.246Z,101163.00
2022-10-26T08:27:50.340Z,101169.00
2022-10-26T08:30:19.027Z,101180.00
2022-10-26T08:32:48.955Z,101179.00
2022-10-26T08:35:17.517Z,101176.00
2022-10-26T08:37:45.781Z,101183.00
2022-10-26T08:40:17.920Z,101187.00
2022-10-26T08:42:51.300Z,101188.00
2022-10-26T08:45:31.665Z,101181.00
2022-10-26T08:48:07.005Z,101198.00
2022-10-26T08:50:42.914Z,101184.00
2022-10-26T08:53:20.471Z,101192.00
2022-10-26T08:55:54.566Z,101174.00
2022-10-26T08:58:29.390Z,101178.00
2022-10-26T09:00:57.593Z,101180.00
2022-10-26T09:03:28.588Z,101174.00
2022-10-26T09:06:23.982Z,101169.00
2022-10-26T09:09:03.922Z,101167.00
2022-10-26T09:11:52.713Z,101162.00
2022-10-26T09:14:29.599Z,101170.00
2022-10-26T09:17:10.049Z,101189.00
2022-10-26T09:20:04.438Z,101195.00
2022-10-26T09:22:44.155Z,101202.00
2022-10-26T09:25:19.967Z,101191.00
2022-10-26T09:27:51.875Z,101175.00
2022-10-26T09:30:22.672Z,101195.00
2022-10-26T09:32:54.479Z,101199.00
2022-10-26T09:35:27.245Z,101209.00
2022-10-26T09:37:59.598Z,101203.00
2022-10-26T09:40:34.433Z,101208.00
2022-10-26T09:43:07.982Z,101207.00
2022-10-26T09:45:39.600Z,101203.00
2022-10-26T09:48:16.212Z,101205.00
2022-10-26T09:50:50.056Z,101212.00
2022-10-26T09:53:18.180Z,101210.00
2022-10-26T09:55:48.645Z,101204.00
2022-10-26T09:58:25.235Z,101212.00
2022-10-26T10:00:54.160Z,101217.00
2022-10-26T10:03:26.842Z,101219.00
2022-10-26T10:06:17.554Z,101225.00
2022-10-26T10:09:06.241Z,101236.00
2022-10-26T10:11:40.480Z,101229.00
2022-10-26T10:14:10.916Z,101223.00
2022-10-26T10:16:39.810Z,101221.00
2022-10-26T10:19:23.363Z,101223.00
2022-10-26T10:21:56.985Z,101232.00
2022-10-26T10:24:29.351Z,101227.00
2022-10-26T10:27:01.159Z,101234.00
2022-10-26T10:29:30.933Z,101231.00
2022-10-26T10:32:01.177Z,101229.00
2022-10-26T10:34:32.851Z,101201.00
2022-10-26T10:37:03.050Z,101225.00
2022-10-26T10:39:49.520Z,101233.00
2022-10-26T10:42:22.667Z,101224.00
2022-10-26T10:44:55.639Z,101208.00
2022-10-26T10:47:26.516Z,101216.00
2022-10-26T10:49:58.593Z,101223.00
2022-10-26T10:52:32.042Z,101231.00
2022-10-26T10:55:18.273Z,101236.00
2022-10-26T10:58:01.447Z,101233.00
2022-10-26T11:00:33.566Z,101241.00
2022-10-26T11:03:34.386Z,101244.00
2022-10-26T11:06:11.125Z,101242.00
2022-10-26T11:08:50.498Z,101240.00
2022-10-26T11:11:23.667Z,101249.00
2022-10-26T11:13:56.989Z,101257.00
2022-10-26T11:16:30.898Z,101251.00
2022-10-26T11:19:05.554Z,101255.00
2022-10-26T11:21:38.690Z,101258.00
2022-10-26T11:24:18.266Z,101256.00
2022-10-26T11:26:54.045Z,101255.00
2022-10-26T11:29:35.053Z,101263.00
2022-10-26T11:32:16.747Z,101261.00
2022-10-26T11:34:53.200Z,101263.00
2022-10-26T11:37:29.085Z,101265.00
2022-10-26T11:40:15.810Z,101273.00
2022-10-26T11:42:50.529Z,101271.00
2022-10-26T11:45:25.044Z,101280.00
2022-10-26T11:47:57.147Z,101283.00
2022-10-26T11:50:30.684Z,101286.00
2022-10-26T11:53:04.511Z,101296.00
2022-10-26T11:55:34.682Z,101280.00
2022-10-26T11:58:03.981Z,101267.00
2022-10-26T12:00:34.332Z,101278.00
2022-10-26T12:03:09.793Z,101286.00
2022-10-26T12:05:50.726Z,101292.00
2022-10-26T12:08:25.741Z,101294.00
2022-10-26T12:13:44.013Z,101290.00
2022-10-26T12:16:23.095Z,101309.00
2022-10-26T12:18:57.898Z,101319.00
2022-10-26T12:21:29.549Z,101315.00
2022-10-26T12:24:00.197Z,101309.00
2022-10-26T12:26:55.462Z,101316.00
2022-10-26T12:29:39.645Z,101320.00
2022-10-26T12:32:51.825Z,101322.00
2022-10-26T13:38:14.014Z,101371.00
2022-10-26T13:40:44.775Z,101373.00
2022-10-26T13:43:21.284Z,101370.00
2022-10-26T13:45:56.177Z,101378.00
2022-10-26T13:48:34.995Z,101374.00
2022-10-26T13:51:08.925Z,101376.00
2022-10-26T13:53:42.859Z,101378.00
2022-10-26T13:56:23.725Z,101382.00
2022-10-26T13:58:56.647Z,101381.00
2022-10-26T14:01:30.477Z,101378.00
2022-10-26T14:03:59.640Z,101371.00
2022-10-26T14:06:35.708Z,101376.00
2022-10-26T14:09:07.185Z,101382.00
2022-10-26T14:11:45.225Z,101386.00
2022-10-26T14:14:20.419Z,101378.00
2022-10-26T14:16:50.808Z,101386.00
2022-10-26T14:19:26.198Z,101386.00
2022-10-26T14:21:55.359Z,101382.00
2022-10-26T14:24:45.293Z,101370.00
2022-10-26T14:27:18.275Z,101388.00
2022-10-26T14:29:58.549Z,101393.00
2022-10-26T14:32:36.718Z,101400.00
2022-10-26T14:35:05.364Z,101408.00
2022-10-26T14:37:43.057Z,101393.00
2022-10-26T14:40:18.929Z,101399.00
2022-10-26T14:42:52.388Z,101417.00
2022-10-26T14:45:47.613Z,101412.00
2022-10-26T14:48:25.019Z,101420.00
2022-10-26T14:51:05.353Z,101423.00
2022-10-26T14:53:38.354Z,101423.00
2022-10-26T14:56:23.872Z,101429.00
2022-10-26T14:58:54.312Z,101437.00
2022-10-26T15:01:36.288Z,101443.00
2022-10-26T15:04:07.614Z,101445.00
2022-10-26T15:06:44.624Z,101455.00
2022-10-26T15:09:40.969Z,101462.00
2022-10-26T15:12:22.172Z,101465.00
2022-10-26T15:14:52.758Z,101476.00
2022-10-26T15:17:27.618Z,101469.00
2022-10-26T15:19:57.832Z,101483.00
2022-10-26T15:22:32.107Z,101470.00
2022-10-26T15:25:03.714Z,101485.00
2022-10-26T15:27:32.261Z,101490.00
2022-10-26T15:30:24.534Z,101494.00
2022-10-26T15:32:53.479Z,101498.00
2022-10-26T15:35:40.000Z,101506.00
2022-10-26T15:38:12.916Z,101509.00
2022-10-26T15:40:44.727Z,101501.00
2022-10-26T15:43:13.587Z,101520.00
2022-10-26T15:45:49.056Z,101529.00
2022-10-26T15:48:27.087Z,101525.00
2022-10-26T15:50:55.493Z,101521.00
2022-10-26T15:53:27.519Z,101527.00
2022-10-26T15:55:57.898Z,101520.00
2022-10-26T15:58:26.961Z,101532.00
2022-10-26T16:00:56.657Z,101526.00
2022-10-26T16:03:27.291Z,101522.00
2022-10-26T16:05:59.762Z,101518.00
2022-10-26T16:08:31.294Z,101525.00
2022-10-26T16:10:59.567Z,101539.00
2022-10-26T16:13:28.487Z,101537.00
2022-10-26T16:15:58.727Z,101528.00
2022-10-26T16:18:26.884Z,101536.00
2022-10-26T16:20:55.092Z,101542.00
2022-10-26T16:23:23.723Z,101547.00
2022-10-26T16:25:52.017Z,101548.00
2022-10-26T16:28:20.236Z,101544.00
2022-10-26T16:30:48.478Z,101548.00
2022-10-26T16:33:18.155Z,101546.00
2022-10-26T16:35:46.280Z,101558.00
2022-10-26T16:38:14.501Z,101550.00
2022-10-26T16:40:45.015Z,101546.00
2022-10-26T16:43:13.270Z,101556.00
2022-10-26T16:45:42.611Z,101559.00
2022-10-26T16:48:15.109Z,101555.00
2022-10-26T16:50:44.758Z,101564.00
2022-10-26T16:53:12.984Z,101571.00
2022-10-26T16:58:09.638Z,101575.00
2022-10-26T17:00:38.869Z,101575.00
2022-10-26T17:03:07.078Z,101579.00
2022-10-26T17:05:35.449Z,101575.00
2022-10-26T17:08:05.162Z,101571.00
2022-10-26T17:10:33.902Z,101582.00
2022-10-26T17:13:03.785Z,101575.00
2022-10-26T17:15:33.986Z,101570.00
2022-10-26T17:18:02.366Z,101581.00
2022-10-26T17:20:30.854Z,101585.00
2022-10-26T17:22:59.039Z,101593.00
2022-10-26T17:25:28.604Z,101588.00
2022-10-26T17:27:57.190Z,101590.00
2022-10-26T17:30:25.504Z,101580.00
2022-10-26T17:32:53.843Z,101597.00
2022-10-26T17:35:22.559Z,101608.00
2022-10-26T17:37:50.903Z,101613.00
2022-10-26T17:40:19.286Z,101618.00
2022-10-26T17:42:48.819Z,101626.00
2022-10-26T17:45:17.188Z,101637.00
2022-10-26T17:47:45.523Z,101623.00
2022-10-26T17:50:13.754Z,101633.00
2022-10-26T17:52:41.997Z,101648.00
2022-10-26T17:55:10.749Z,101640.00
2022-10-26T17:57:38.966Z,101644.00
2022-10-26T18:00:10.505Z,101643.00
2022-10-26T18:02:40.130Z,101655.00
2022-10-26T18:05:10.111Z,101655.00
2022-10-26T18:07:38.279Z,101660.00
2022-10-26T18:10:19.537Z,101668.00
2022-10-26T18:12:54.232Z,101668.00
2022-10-26T18:15:25.030Z,101667.00
2022-10-26T18:17:58.183Z,101668.00
2022-10-26T18:20:28.084Z,101676.00
2022-10-26T18:22:57.814Z,101681.00
2022-10-26T18:25:26.581Z,101685.00
2022-10-26T18:27:55.108Z,101683.00
2022-10-26T18:30:25.631Z,101687.00
2022-10-26T18:32:54.621Z,101693.00
2022-10-26T18:35:24.383Z,101694.00
2022-10-26T18:37:53.155Z,101690.00
2022-10-26T18:40:21.904Z,101702.00
2022-10-26T18:42:50.377Z,101691.00
2022-10-26T18:45:18.753Z,101712.00
2022-10-26T18:47:48.560Z,101714.00
2022-10-26T18:50:17.354Z,101708.00
2022-10-26T18:52:46.047Z,101716.00
2022-10-26T18:55:14.204Z,101710.00
2022-10-26T18:57:42.507Z,101721.00
2022-10-26T19:00:12.674Z,101708.00
2022-10-26T19:02:40.963Z,101725.00
2022-10-26T19:05:11.002Z,101727.00
2022-10-26T19:07:40.146Z,101734.00
2022-10-26T19:10:12.959Z,101733.00
2022-10-26T19:12:41.300Z,101725.00
2022-10-26T19:15:10.532Z,101735.00
2022-10-26T19:17:39.933Z,101737.00
2022-10-26T19:20:12.893Z,101737.00
2022-10-26T19:22:41.109Z,101738.00
2022-10-26T19:25:10.943Z,101735.00
2022-10-26T19:27:39.353Z,101741.00
2022-10-26T19:30:09.728Z,101717.00
2022-10-26T19:32:39.962Z,101745.00
2022-10-26T19:35:10.503Z,101743.00
2022-10-26T19:37:38.670Z,101752.00
2022-10-26T19:40:08.501Z,101752.00
2022-10-26T19:42:42.718Z,101754.00
2022-10-26T19:45:11.854Z,101761.00
2022-10-26T19:47:40.137Z,101755.00
2022-10-26T19:50:12.929Z,101769.00
2022-10-26T19:52:42.006Z,101766.00
2022-10-26T19:55:11.481Z,101764.00
2022-10-26T19:57:46.116Z,101778.00
2022-10-26T20:00:17.717Z,101777.00
2022-10-26T20:02:46.097Z,101766.00
2022-10-26T20:05:16.046Z,101757.00
2022-10-26T20:07:44.340Z,101778.00
2022-10-26T20:10:12.537Z,101777.00
2022-10-26T20:12:40.835Z,101784.00
2022-10-26T20:15:10.571Z,101795.00
2022-10-26T20:17:43.539Z,101780.00
2022-10-26T20:20:17.828Z,101793.00
2022-10-26T20:22:46.276Z,101769.00
2022-10-26T20:25:14.761Z,101785.00
2022-10-26T20:27:45.193Z,101800.00
2022-10-26T20:30:15.093Z,101801.00
2022-10-26T20:32:43.307Z,101801.00
2022-10-26T20:35:11.789Z,101805.00
2022-10-26T20:37:42.798Z,101779.00
2022-10-26T20:40:16.595Z,101809.00
2022-10-26T20:42:45.884Z,101814.00
2022-10-26T20:45:20.012Z,101814.00
2022-10-26T20:47:49.506Z,101821.00
2022-10-26T20:50:19.623Z,101811.00
2022-10-26T20:52:56.254Z,101823.00
2022-10-26T20:55:36.068Z,101828.00
2022-10-26T20:58:07.763Z,101837.00
2022-10-26T21:00:45.505Z,101839.00
2022-10-26T21:03:13.798Z,101828.00
2022-10-26T21:05:45.557Z,101828.00
2022-10-26T21:08:15.337Z,101837.00
2022-10-26T21:10:43.567Z,101826.00
2022-10-26T21:13:11.694Z,101837.00
2022-10-26T21:15:40.062Z,101843.00
2022-10-26T21:18:08.316Z,101842.00
2022-10-26T21:20:36.772Z,101839.00
2022-10-26T21:23:05.223Z,101839.00
2022-10-26T21:25:37.575Z,101836.00
2022-10-26T21:28:07.826Z,101846.00
2022-10-26T21:30:36.397Z,101845.00
2022-10-26T21:33:04.717Z,101840.00
2022-10-26T21:35:32.828Z,101846.00
2022-10-26T21:38:01.004Z,101840.00
2022-10-26T21:40:30.323Z,101843.00
2022-10-26T21:42:59.837Z,101851.00
2022-10-26T21:45:28.069Z,101842.00
2022-10-26T21:47:56.248Z,101847.00
2022-10-26T21:50:24.410Z,101855.00
2022-10-26T21:52:54.363Z,101854.00
2022-10-26T21:55:23.037Z,101848.00
2022-10-26T21:57:54.454Z,101855.00
2022-10-26T22:00:24.255Z,101856.00
2022-10-26T22:02:53.478Z,101861.00
2022-10-26T22:05:21.801Z,101870.00
2022-10-26T22:07:50.260Z,101863.00
2022-10-26T22:10:18.757Z,101858.00
2022-10-26T22:12:46.971Z,101860.00
2022-10-26T22:15:15.250Z,101856.00
2022-10-26T22:17:45.293Z,101854.00
2022-10-26T22:20:13.912Z,101847.00
2022-10-26T22:22:42.081Z,101850.00
2022-10-26T22:25:10.763Z,101833.00
2022-10-26T22:27:38.917Z,101846.00
2022-10-26T22:30:09.151Z,101847.00
2022-10-26T22:32:37.322Z,101850.00
2022-10-26T22:35:28.095Z,101845.00
2022-10-26T22:37:56.241Z,101864.00
2022-10-26T22:40:24.395Z,101860.00
2022-10-26T22:42:53.069Z,101860.00
2022-10-26T22:45:21.438Z,101860.00
2022-10-26T22:47:49.694Z,101860.00
2022-10-26T22:50:19.627Z,101876.00
2022-10-26T22:52:48.268Z,101875.00
2022-10-26T22:55:16.841Z,101869.00
2022-10-26T22:57:45.057Z,101863.00
2022-10-26T23:00:14.853Z,101878.00
2022-10-26T23:02:43.215Z,101870.00
2022-10-26T23:05:11.426Z,101875.00
2022-10-26T23:07:40.984Z,101857.00
2022-10-26T23:10:10.890Z,101881.00
2022-10-26T23:12:39.796Z,101879.00
2022-10-26T23:15:09.360Z,101888.00
2022-10-26T23:17:37.530Z,101885.00
2022-10-26T23:20:07.211Z,101893.00
2022-10-26T23:22:35.550Z,101901.00
2022-10-26T23:25:05.596Z,101903.00
2022-10-26T23:27:33.991Z,101905.00
2022-10-26T23:30:02.173Z,101885.00
2022-10-26T23:32:30.554Z,101900.00
2022-10-26T23:34:58.700Z,101901.00
2022-10-26T23:37:27.046Z,101894.00
2022-10-26T23:39:55.279Z,101878.00
2022-10-26T23:42:24.841Z,101904.00
2022-10-26T23:44:53.016Z,101907.00
2022-10-26T23:47:21.261Z,101900.00
2022-10-26T23:49:50.156Z,101902.00
2022-10-26T23:52:18.391Z,101914.00
2022-10-26T23:54:46.613Z,101908.00
2022-10-26T23:57:14.853Z,101917.00
2022-10-26T23:59:44.432Z,101913.00
